Time;durP1;ratioP1;P1;durP2;ratioP2;P2;SDS_P1;SDS_P2;PMS_P1;PMS_P2;Temp;Humidity;BMP_temperature;BMP_pressure;BME280_temperature;BME280_humidity;BME280_pressure;Samples;Min_cycle;Max_cycle;Signal;HPM_P1;HPM_P2
2021/12/10 00:01:00;;;;;;;23.25;10.55;;;;;;;2.36;86.45;98056.45;1823169;78;21527;-77
2021/12/10 00:03:34;;;;;;;26.82;9.70;;;;;;;2.36;86.41;98055.17;1817604;78;20987;-79
2021/12/10 00:06:10;;;;;;;28.55;11.12;;;;;;;2.35;86.64;98060.73;1824646;78;21046;-77
2021/12/10 00:08:41;;;;;;;26.82;10.68;;;;;;;2.37;86.61;98056.88;1815310;78;21154;-77
2021/12/10 00:11:18;;;;;;;25.90;11.00;;;;;;;2.39;86.77;98062.41;1803176;78;21550;-78
2021/12/10 00:13:47;;;;;;;28.80;10.58;;;;;;;2.43;86.83;98045.28;1819613;78;21526;-79
2021/12/10 00:16:17;;;;;;;25.20;10.48;;;;;;;2.43;86.62;98050.41;1826588;78;21012;-79
2021/12/10 00:18:50;;;;;;;22.45;10.10;;;;;;;2.47;86.76;98054.65;1824682;78;21058;-77
2021/12/10 00:21:12;;;;;;;27.05;13.03;;;;;;;2.49;86.72;98049.07;1796280;80;21495;-79
2021/12/10 00:23:38;;;;;;;23.85;11.18;;;;;;;2.47;86.63;98044.83;1812531;78;21002;-79
2021/12/10 00:26:06;;;;;;;22.20;10.93;;;;;;;2.53;86.55;98034.50;1821716;79;21000;-79
2021/12/10 00:28:39;;;;;;;26.27;11.97;;;;;;;2.46;86.06;98026.44;1808297;79;21028;-78
2021/12/10 00:31:31;;;;;;;25.65;11.15;;;;;;;2.39;86.39;98036.76;1816998;78;21003;-76
2021/12/10 00:33:56;;;;;;;27.40;11.65;;;;;;;2.34;86.28;98025.67;1795904;78;21020;-78
2021/12/10 00:36:23;;;;;;;25.45;10.25;;;;;;;2.29;86.29;98026.17;1812020;78;21003;-77
2021/12/10 00:38:51;;;;;;;23.83;9.73;;;;;;;2.26;86.19;98035.16;1821590;77;21059;-77
2021/12/10 00:41:20;;;;;;;22.58;10.55;;;;;;;2.23;86.13;98036.89;1813318;79;20996;-78
2021/12/10 00:43:47;;;;;;;24.10;11.00;;;;;;;2.22;86.24;98045.47;1814648;79;21571;-78
2021/12/10 00:46:15;;;;;;;25.90;11.40;;;;;;;2.21;86.46;98054.01;1826298;78;21439;-77
2021/12/10 00:48:42;;;;;;;29.00;11.83;;;;;;;2.22;86.62;98055.72;1830624;77;21019;-79
2021/12/10 00:51:11;;;;;;;30.52;11.22;;;;;;;2.25;86.66;98047.98;1818400;78;21042;-79
2021/12/10 00:53:39;;;;;;;25.75;11.97;;;;;;;2.23;86.63;98026.23;1832152;78;21448;-77
2021/12/10 00:56:07;;;;;;;31.37;12.05;;;;;;;2.18;86.70;98044.20;1818808;78;21510;-79
2021/12/10 00:58:36;;;;;;;24.65;11.53;;;;;;;2.17;86.73;98072.00;1797451;79;21062;-79
2021/12/10 01:01:14;;;;;;;25.40;11.00;;;;;;;2.21;86.84;98080.94;1814413;78;21043;-78
2021/12/10 01:03:46;;;;;;;27.70;11.60;;;;;;;2.24;86.80;98076.64;1822689;78;20988;-77
2021/12/10 01:06:15;;;;;;;58.83;21.27;;;;;;;2.22;86.87;98074.95;1811774;78;21087;-77
2021/12/10 01:08:46;;;;;;;34.78;14.18;;;;;;;2.24;86.78;98075.80;1805528;78;20980;-77
2021/12/10 01:11:24;;;;;;;39.73;15.50;;;;;;;2.28;86.73;98077.47;1810509;78;20992;-77
2021/12/10 01:13:57;;;;;;;56.73;23.07;;;;;;;2.30;86.74;98067.61;1779470;80;21127;-77
2021/12/10 01:25:07;;;;;;;28.50;13.53;;;;;;;2.32;86.44;98065.03;1815075;78;21035;-78
2021/12/10 01:27:34;;;;;;;28.70;13.22;;;;;;;2.30;86.21;98066.77;1809303;79;21008;-77
2021/12/10 01:30:23;;;;;;;24.37;11.78;;;;;;;2.27;86.27;98075.34;1814519;79;21983;-78
2021/12/10 01:32:58;;;;;;;36.03;12.35;;;;;;;2.21;86.23;98054.88;1810011;78;21075;-80
2021/12/10 01:35:36;;;;;;;31.97;12.78;;;;;;;2.21;86.63;98059.14;1797704;78;21020;-77
2021/12/10 01:38:06;;;;;;;27.62;11.12;;;;;;;2.19;86.69;98059.17;1812670;78;20996;-79
2021/12/10 01:40:35;;;;;;;26.37;11.83;;;;;;;2.22;86.53;98058.29;1815226;78;21510;-77
2021/12/10 01:43:07;;;;;;;34.88;14.05;;;;;;;2.21;86.60;98061.70;1813271;78;21004;-77
2021/12/10 01:45:45;;;;;;;28.32;11.68;;;;;;;2.22;86.81;98070.67;1814582;79;21020;-77
2021/12/10 01:48:10;;;;;;;;;;;;;;;2.22;86.83;98068.55;1777995;79;21007;-79
2021/12/10 01:50:37;;;;;;;31.75;13.25;;;;;;;2.19;86.98;98070.72;1822915;78;20280;-78
2021/12/10 01:53:10;;;;;;;26.57;11.45;;;;;;;2.19;87.52;98071.55;1807117;79;20980;-78
2021/12/10 01:55:41;;;;;;;29.75;11.83;;;;;;;2.21;87.48;98087.34;1818854;78;21035;-77
2021/12/10 01:58:12;;;;;;;29.60;12.55;;;;;;;2.23;87.47;98086.90;1812486;78;21102;-78
2021/12/10 02:00:43;;;;;;;27.10;12.85;;;;;;;2.21;87.57;98085.66;1794900;78;21008;-77
2021/12/10 02:03:10;;;;;;;31.23;13.80;;;;;;;2.19;87.55;98080.53;1817464;78;20980;-77
2021/12/10 02:05:36;;;;;;;28.83;13.40;;;;;;;2.19;87.56;98079.25;1811358;78;20996;-78
2021/12/10 02:08:04;;;;;;;27.13;12.82;;;;;;;2.20;87.64;98076.25;1816329;78;21074;-77
2021/12/10 02:10:34;;;;;;;27.45;12.73;;;;;;;2.20;87.61;98078.81;1805857;78;21059;-79
2021/12/10 02:13:02;;;;;;;26.70;11.83;;;;;;;2.18;87.60;98071.13;1812134;79;21142;-78
2021/12/10 02:15:29;;;;;;;29.37;11.97;;;;;;;2.19;87.25;98068.15;1804831;78;21535;-78
2021/12/10 02:17:58;;;;;;;27.95;11.63;;;;;;;2.14;87.31;98066.88;1814389;78;21452;-79
2021/12/10 02:20:48;;;;;;;27.85;13.22;;;;;;;2.08;87.83;98063.09;1823503;78;21006;-77
2021/12/10 02:23:15;;;;;;;24.55;12.58;;;;;;;2.06;87.73;98060.13;1828462;78;21126;-77
2021/12/10 02:25:42;;;;;;;26.15;12.40;;;;;;;2.03;88.02;98051.16;1819544;78;20961;-77
2021/12/10 02:28:11;;;;;;;32.42;12.60;;;;;;;2.04;88.33;98042.63;1826946;78;21030;-77
2021/12/10 02:30:39;;;;;;;25.77;12.05;;;;;;;2.06;87.77;98019.94;1823272;78;21038;-78
2021/12/10 02:33:08;;;;;;;32.13;12.13;;;;;;;2.08;87.91;98007.12;1834077;78;21000;-77
2021/12/10 02:35:35;;;;;;;29.92;12.40;;;;;;;2.09;88.23;97997.27;1815164;78;21074;-79
2021/12/10 02:38:03;;;;;;;29.85;12.20;;;;;;;2.12;88.17;98000.66;1825129;76;21006;-79
2021/12/10 02:40:31;;;;;;;27.10;12.03;;;;;;;2.17;88.23;98001.92;1816495;77;21050;-78
2021/12/10 02:43:03;;;;;;;23.77;11.12;;;;;;;2.21;88.19;97999.75;1817141;77;21542;-78
2021/12/10 02:45:30;;;;;;;30.00;12.03;;;;;;;2.23;87.94;98000.58;1821501;77;21017;-78
2021/12/10 02:47:57;;;;;;;30.75;13.40;;;;;;;2.23;87.93;97992.02;1819340;77;21019;-79
2021/12/10 02:50:28;;;;;;;47.15;19.65;;;;;;;2.25;88.02;97991.56;1823267;77;20992;-77
2021/12/10 02:52:56;;;;;;;34.70;16.67;;;;;;;2.24;87.80;97988.16;1822052;78;21022;-78
2021/12/10 02:55:23;;;;;;;36.83;16.82;;;;;;;2.22;88.07;97996.74;1787795;80;21062;-78
2021/12/10 02:57:57;;;;;;;38.73;17.23;;;;;;;2.24;88.04;98010.40;1768839;79;21541;-79
2021/12/10 03:00:28;;;;;;;27.05;12.58;;;;;;;2.23;87.87;98022.38;1765747;80;21023;-78
2021/12/10 03:02:55;;;;;;;32.42;13.00;;;;;;;2.22;87.97;98026.23;1784624;79;21096;-79
2021/12/10 03:05:22;;;;;;;25.05;11.45;;;;;;;2.22;87.13;98026.23;1791395;79;21447;-79
2021/12/10 03:07:51;;;;;;;30.75;11.97;;;;;;;2.18;86.94;98025.41;1775782;79;21111;-79
2021/12/10 03:10:23;;;;;;;22.95;11.88;;;;;;;2.14;87.46;98023.73;1793096;79;21523;-79
2021/12/10 03:12:50;;;;;;;29.52;13.45;;;;;;;2.13;87.63;98033.14;1773878;79;21074;-77
2021/12/10 03:15:19;;;;;;;26.77;11.35;;;;;;;2.12;88.12;98022.89;1773494;79;20987;-77
2021/12/10 03:17:46;;;;;;;26.62;12.78;;;;;;;2.14;88.10;98018.60;1777953;79;20983;-77
2021/12/10 03:20:16;;;;;;;32.60;11.38;;;;;;;2.15;87.97;98026.29;1770310;79;20970;-77
2021/12/10 03:22:44;;;;;;;28.42;12.65;;;;;;;2.15;88.31;98033.14;1783631;79;21007;-77
2021/12/10 03:25:14;;;;;;;30.40;11.80;;;;;;;2.21;88.29;98037.34;1774516;79;21031;-78
2021/12/10 03:27:43;;;;;;;25.62;11.68;;;;;;;2.21;88.43;98045.03;1787431;79;21015;-77
2021/12/10 03:30:15;;;;;;;32.35;12.73;;;;;;;2.21;88.43;98027.95;1773772;79;21007;-78
2021/12/10 03:32:42;;;;;;;27.70;12.47;;;;;;;2.22;88.41;98027.08;1781382;79;21040;-79
2021/12/10 03:35:15;;;;;;;27.15;11.93;;;;;;;2.23;88.45;98030.08;1789025;79;21035;-79
2021/12/10 03:37:43;;;;;;;31.20;13.38;;;;;;;2.27;88.41;98029.18;1787635;79;20987;-78
2021/12/10 03:40:14;;;;;;;28.47;13.78;;;;;;;2.31;88.34;98038.55;1766874;79;21016;-79
2021/12/10 03:42:40;;;;;;;28.05;12.65;;;;;;;2.34;88.31;98035.94;1743948;80;21161;-77
2021/12/10 03:45:11;;;;;;;29.18;13.13;;;;;;;2.38;88.24;98032.92;1751987;80;21108;-78
2021/12/10 03:47:39;;;;;;;31.90;13.95;;;;;;;2.38;87.85;98026.50;1764573;80;21056;-79
2021/12/10 03:50:08;;;;;;;39.50;18.60;;;;;;;2.34;88.05;98025.67;1754577;80;21087;-79
2021/12/10 03:52:35;;;;;;;38.15;18.32;;;;;;;2.34;87.96;98017.14;1763375;80;20965;-79
2021/12/10 03:55:05;;;;;;;30.30;15.20;;;;;;;2.31;88.01;98018.47;1757852;80;21036;-79
2021/12/10 03:57:32;;;;;;;28.38;13.13;;;;;;;2.30;87.79;98009.90;1739802;80;21024;-78
2021/12/10 03:59:59;;;;;;;29.50;14.23;;;;;;;2.28;87.84;98009.50;1748548;80;21016;-79
2021/12/10 04:02:26;;;;;;;34.75;14.53;;;;;;;2.24;88.01;98012.52;1766863;80;20981;-79
2021/12/10 04:04:53;;;;;;;29.57;14.18;;;;;;;2.23;87.96;98008.27;1770065;80;21599;-79
2021/12/10 04:07:24;;;;;;;34.30;14.93;;;;;;;2.21;87.92;98006.16;1763018;80;21008;-79
2021/12/10 04:09:53;;;;;;;39.75;13.75;;;;;;;2.23;88.03;98000.58;1761410;80;21559;-76
2021/12/10 04:12:22;;;;;;;36.08;14.23;;;;;;;2.23;88.03;98006.12;1769171;80;20981;-77
2021/12/10 04:14:51;;;;;;;31.35;12.70;;;;;;;2.24;88.00;98020.22;1766251;80;21121;-77
2021/12/10 04:17:20;;;;;;;34.80;13.83;;;;;;;2.26;88.10;98021.05;1754862;80;21551;-79
2021/12/10 04:19:49;;;;;;;29.40;14.00;;;;;;;2.30;88.32;98018.03;1747898;80;20984;-77
2021/12/10 04:22:17;;;;;;;32.53;13.45;;;;;;;2.34;88.13;98018.42;1751602;80;21460;-77
2021/12/10 04:24:44;;;;;;;26.90;13.70;;;;;;;2.39;88.26;98021.81;1759203;80;21012;-78
2021/12/10 04:27:13;;;;;;;32.23;13.95;;;;;;;2.42;88.09;98035.87;1751258;80;21064;-77
2021/12/10 04:29:41;;;;;;;34.33;14.85;;;;;;;2.45;88.03;98049.09;1729208;81;21662;-78
2021/12/10 04:32:10;;;;;;;33.58;14.47;;;;;;;2.48;87.88;98055.05;1767593;81;21128;-79
2021/12/10 04:34:38;;;;;;;31.93;14.83;;;;;;;2.49;87.71;98059.77;1768041;81;20938;-79
2021/12/10 04:37:07;;;;;;;36.38;14.43;;;;;;;2.45;87.62;98067.92;1715657;81;20993;-79
2021/12/10 04:39:37;;;;;;;32.98;13.88;;;;;;;2.45;87.65;98066.64;1764008;79;20972;-77
2021/12/10 04:42:05;;;;;;;33.10;14.30;;;;;;;2.46;87.72;98061.07;1798898;79;21348;-77
2021/12/10 04:44:31;;;;;;;39.33;14.93;;;;;;;2.46;87.48;98070.05;1763458;81;21460;-80
2021/12/10 04:46:58;;;;;;;31.55;14.85;;;;;;;2.42;87.26;98066.66;1792679;80;21044;-78
2021/12/10 04:49:25;;;;;;;38.40;14.45;;;;;;;2.34;87.30;98071.00;1780571;80;20961;-78
2021/12/10 04:51:54;;;;;;;38.60;16.75;;;;;;;2.29;87.37;98067.20;1763184;81;21516;-79
2021/12/10 04:54:24;;;;;;;41.02;16.10;;;;;;;2.25;87.28;98064.25;1783192;77;21243;-78
2021/12/10 04:56:54;;;;;;;37.38;16.80;;;;;;;2.22;87.51;98075.80;1797352;77;21355;-77
2021/12/10 04:59:22;;;;;;;46.65;16.20;;;;;;;2.19;87.60;98071.55;1765045;79;21076;-80
2021/12/10 05:01:53;;;;;;;37.58;15.83;;;;;;;2.21;87.83;98076.68;1788697;80;21488;-79
2021/12/10 05:04:19;;;;;;;37.00;16.10;;;;;;;2.23;87.93;98089.47;1783139;80;21642;-77
2021/12/10 05:06:46;;;;;;;36.83;16.17;;;;;;;2.27;88.02;98093.70;1798415;80;21052;-79
2021/12/10 05:09:13;;;;;;;31.45;14.63;;;;;;;2.28;87.89;98094.98;1788415;80;20996;-78
2021/12/10 05:11:42;;;;;;;35.65;13.85;;;;;;;2.28;87.81;98096.70;1798186;80;21064;-78
2021/12/10 05:14:09;;;;;;;31.75;13.30;;;;;;;2.31;87.88;98094.13;1778568;80;20988;-77
2021/12/10 05:16:43;;;;;;;36.28;13.35;;;;;;;2.30;87.84;98086.84;1770188;80;20976;-79
2021/12/10 05:19:09;;;;;;;31.52;15.15;;;;;;;2.36;87.92;98091.08;1780563;79;21008;-77
2021/12/10 05:21:38;;;;;;;35.45;15.28;;;;;;;2.42;88.08;98076.91;1814460;79;20994;-77
2021/12/10 05:24:07;;;;;;;32.35;15.13;;;;;;;2.48;88.08;98076.86;1766717;81;21427;-78
2021/12/10 05:26:35;;;;;;;34.40;15.58;;;;;;;2.54;88.03;98071.67;1798746;80;21492;-79
2021/12/10 05:29:05;;;;;;;35.30;16.10;;;;;;;2.57;87.95;98074.22;1789809;80;20984;-77
2021/12/10 05:31:35;;;;;;;33.75;15.55;;;;;;;2.63;87.87;98060.92;1778153;80;21072;-78
2021/12/10 05:34:01;;;;;;;36.53;17.32;;;;;;;2.65;87.71;98065.61;1788805;80;20996;-77
2021/12/10 05:36:28;;;;;;;34.20;16.42;;;;;;;2.64;87.61;98071.59;1777636;78;20987;-79
2021/12/10 05:38:55;;;;;;;31.82;16.07;;;;;;;2.67;87.64;98077.98;1788532;79;20998;-79
2021/12/10 05:41:22;;;;;;;43.87;22.35;;;;;;;2.68;87.68;98070.25;1786016;79;21592;-78
2021/12/10 05:43:49;;;;;;;41.00;16.73;;;;;;;2.69;87.62;98073.69;1818557;78;21047;-80
2021/12/10 05:46:17;;;;;;;33.58;15.98;;;;;;;2.67;87.35;98071.58;1812465;78;21027;-79
2021/12/10 05:48:44;;;;;;;44.75;17.82;;;;;;;2.64;87.42;98058.32;1797654;78;21062;-78
2021/12/10 05:51:12;;;;;;;34.83;16.87;;;;;;;2.58;87.21;98054.09;1811430;78;21091;-79
2021/12/10 05:53:40;;;;;;;63.13;23.77;;;;;;;2.58;87.13;98053.25;1814772;78;21326;-78
2021/12/10 05:56:07;;;;;;;51.80;22.77;;;;;;;2.57;87.32;98048.56;1818582;78;21104;-79
2021/12/10 05:58:34;;;;;;;37.42;16.42;;;;;;;2.61;87.55;98044.25;1812185;78;21118;-79
2021/12/10 06:01:06;;;;;;;41.55;16.93;;;;;;;2.63;87.41;98044.25;1818839;78;20981;-78
2021/12/10 06:03:36;;;;;;;43.28;20.55;;;;;;;2.59;87.57;98039.12;1783812;78;21019;-78
2021/12/10 06:06:05;;;;;;;34.55;16.55;;;;;;;2.62;87.86;98043.38;1824798;78;21099;-77
2021/12/10 06:08:32;;;;;;;35.95;15.30;;;;;;;2.66;87.72;98051.89;1822174;78;21011;-79
2021/12/10 06:11:00;;;;;;;43.63;19.12;;;;;;;2.70;87.81;98048.43;1824726;78;22106;-77
2021/12/10 06:13:28;;;;;;;45.63;17.73;;;;;;;2.62;87.85;98033.55;1824896;78;21039;-77
2021/12/10 06:15:55;;;;;;;41.18;19.00;;;;;;;2.68;87.88;98054.02;1828311;78;20987;-79
2021/12/10 06:18:21;;;;;;;40.38;18.10;;;;;;;2.72;87.95;98056.96;1819777;78;21070;-77
2021/12/10 06:20:51;;;;;;;42.43;18.90;;;;;;;2.77;88.00;98063.75;1831983;77;21084;-78
2021/12/10 06:23:19;;;;;;;40.38;19.90;;;;;;;2.82;88.06;98062.41;1817534;78;21006;-77
2021/12/10 06:25:46;;;;;;;37.33;19.20;;;;;;;2.85;87.90;98058.55;1832602;78;21515;-79
2021/12/10 06:28:13;;;;;;;38.85;18.95;;;;;;;2.84;87.97;98070.95;1818798;78;21006;-79
2021/12/10 06:30:44;;;;;;;34.92;16.60;;;;;;;2.83;87.47;98052.58;1834323;78;20988;-79
2021/12/10 06:33:15;;;;;;;42.93;17.07;;;;;;;2.79;87.77;98069.72;1810643;78;21478;-78
2021/12/10 06:35:46;;;;;;;43.40;18.95;;;;;;;2.78;87.40;98055.17;1811477;77;21027;-78
2021/12/10 06:38:15;;;;;;;37.58;18.67;;;;;;;2.72;87.66;98062.94;1819314;78;21055;-77
2021/12/10 06:40:44;;;;;;;42.03;19.82;;;;;;;2.71;87.82;98067.67;1842405;75;21126;-79
2021/12/10 06:43:12;;;;;;;48.68;22.22;;;;;;;2.71;87.91;98070.67;1818679;78;21015;-79
2021/12/10 06:45:40;;;;;;;52.03;21.73;;;;;;;2.70;87.91;98061.27;1826233;78;20988;-77
2021/12/10 06:48:09;;;;;;;41.92;19.32;;;;;;;2.71;88.06;98084.35;1821965;77;21327;-78
2021/12/10 06:50:44;;;;;;;42.15;19.92;;;;;;;2.68;87.68;98082.24;1831194;77;21031;-79
2021/12/10 06:53:11;;;;;;;43.83;21.02;;;;;;;2.69;88.01;98090.38;1826217;77;21012;-77
2021/12/10 06:55:38;;;;;;;47.27;21.55;;;;;;;2.71;87.95;98088.20;1810491;77;21071;-79
2021/12/10 06:58:07;;;;;;;53.23;23.27;;;;;;;2.75;88.42;98089.88;1807929;77;21066;-80
2021/12/10 07:00:43;;;;;;;53.42;24.02;;;;;;;2.80;88.54;98098.80;1809871;77;21640;-79
2021/12/10 07:03:14;;;;;;;58.85;24.63;;;;;;;2.87;88.46;98105.59;1822562;77;21020;-77
2021/12/10 07:05:41;;;;;;;57.00;24.50;;;;;;;2.92;88.37;98111.95;1836119;77;21095;-77
2021/12/10 07:08:08;;;;;;;69.67;27.25;;;;;;;2.94;88.23;98105.92;1819699;77;21058;-78
2021/12/10 07:10:36;;;;;;;53.68;23.70;;;;;;;2.97;88.22;98118.74;1826173;77;21434;-79
2021/12/10 07:13:06;;;;;;;49.38;20.88;;;;;;;3.01;88.16;98118.28;1824286;77;21030;-80
2021/12/10 07:15:37;;;;;;;45.55;22.35;;;;;;;3.06;88.12;98115.22;1825848;77;21607;-80
2021/12/10 07:18:05;;;;;;;64.62;34.35;;;;;;;3.10;88.02;98119.45;1824710;77;20994;-78
2021/12/10 07:20:33;;;;;;;60.08;30.55;;;;;;;3.11;87.63;98118.59;1816539;77;20961;-79
2021/12/10 07:23:00;;;;;;;72.45;34.08;;;;;;;3.14;87.71;98125.41;1820864;77;21616;-80
2021/12/10 07:25:27;;;;;;;56.28;22.80;;;;;;;3.12;87.72;98116.88;1813222;77;21538;-81
2021/12/10 07:27:54;;;;;;;53.28;23.75;;;;;;;3.12;87.51;98113.89;1818467;77;21027;-81
2021/12/10 07:30:24;;;;;;;58.33;25.52;;;;;;;3.16;87.64;98119.41;1819291;77;21051;-80
2021/12/10 07:32:51;;;;;;;66.33;27.80;;;;;;;3.15;87.44;98108.70;1820186;77;21109;-80
2021/12/10 07:35:20;;;;;;;58.15;25.05;;;;;;;3.16;87.57;98112.12;1816385;77;21120;-80
2021/12/10 07:37:47;;;;;;;54.93;24.37;;;;;;;3.17;87.72;98108.70;1817651;77;21035;-80
2021/12/10 07:40:20;;;;;;;54.90;24.87;;;;;;;3.13;87.36;98100.61;1822821;77;21122;-80
2021/12/10 07:42:49;;;;;;;43.42;20.27;;;;;;;3.11;87.75;98090.79;1829463;76;21035;-77
2021/12/10 07:45:17;;;;;;;54.10;21.27;;;;;;;3.12;87.96;98077.06;1828489;76;21017;-79
2021/12/10 07:47:45;;;;;;;59.23;22.73;;;;;;;3.10;87.58;98071.09;1829954;76;21058;-79
2021/12/10 07:50:20;;;;;;;53.35;22.20;;;;;;;3.10;87.64;98071.09;1798292;76;21023;-77
2021/12/10 07:52:48;;;;;;;55.80;22.25;;;;;;;3.12;87.55;98073.21;1829233;77;20957;-77
2021/12/10 07:55:16;;;;;;;53.92;23.65;;;;;;;3.15;87.69;98072.75;1825751;76;21317;-79
2021/12/10 07:57:43;;;;;;;49.77;22.10;;;;;;;3.17;87.56;98067.16;1819507;76;21035;-78
2021/12/10 08:00:14;;;;;;;45.48;22.95;;;;;;;3.19;87.59;98074.85;1827854;76;21019;-79
2021/12/10 08:02:41;;;;;;;51.70;24.35;;;;;;;3.22;87.78;98074.80;1820302;76;21011;-78
2021/12/10 08:05:09;;;;;;;50.03;20.97;;;;;;;3.23;87.94;98080.37;1822715;76;21428;-80
2021/12/10 08:07:36;;;;;;;49.77;22.75;;;;;;;3.28;88.10;98075.16;1828775;76;21549;-80
2021/12/10 08:10:05;;;;;;;68.92;30.37;;;;;;;3.29;88.04;98081.58;1825049;76;21020;-81
2021/12/10 08:12:33;;;;;;;60.52;27.20;;;;;;;3.27;88.32;98073.48;1829274;76;20991;-81
2021/12/10 08:14:59;;;;;;;76.92;32.28;;;;;;;3.31;88.24;98075.98;1827141;76;21061;-80
2021/12/10 08:17:27;;;;;;;71.37;29.23;;;;;;;3.30;88.29;98078.56;1825610;76;21059;-80
2021/12/10 08:19:53;;;;;;;58.75;25.15;;;;;;;3.31;88.31;98077.27;1833031;76;21030;-79
2021/12/10 08:22:20;;;;;;;65.85;29.02;;;;;;;3.27;88.20;98071.76;1827394;76;21384;-78
2021/12/10 08:24:47;;;;;;;55.33;27.90;;;;;;;3.31;88.42;98072.58;1825323;76;20973;-80
2021/12/10 08:27:15;;;;;;;54.83;25.77;;;;;;;3.30;88.31;98073.02;1831031;76;21102;-80
2021/12/10 08:29:44;;;;;;;59.50;25.55;;;;;;;3.31;88.30;98070.84;1820653;76;21577;-80
2021/12/10 08:32:15;;;;;;;61.45;27.37;;;;;;;3.36;88.22;98065.64;1824739;76;21035;-79
2021/12/10 08:34:41;;;;;;;57.35;25.77;;;;;;;3.37;88.32;98067.36;1830565;76;21008;-79
2021/12/10 08:37:07;;;;;;;54.88;25.43;;;;;;;3.41;88.50;98078.45;1828405;76;21547;-80
2021/12/10 08:39:34;;;;;;;58.70;25.92;;;;;;;3.45;88.53;98074.53;1826374;76;21019;-79
2021/12/10 08:42:01;;;;;;;77.15;28.67;;;;;;;3.49;88.55;98077.91;1827543;76;21022;-79
2021/12/10 08:44:28;;;;;;;69.90;28.57;;;;;;;3.51;88.38;98068.47;1827672;76;21174;-79
2021/12/10 08:46:56;;;;;;;71.55;30.00;;;;;;;3.53;88.32;98071.86;1830955;76;21094;-78
2021/12/10 08:49:23;;;;;;;77.67;32.00;;;;;;;3.54;88.04;98078.69;1827862;76;21078;-81
2021/12/10 08:51:54;;;;;;;78.40;33.98;;;;;;;3.53;88.37;98070.58;1826630;76;21122;-78
2021/12/10 08:54:26;;;;;;;76.05;32.80;;;;;;;3.56;88.42;98076.53;1826314;76;21056;-78
2021/12/10 08:56:53;;;;;;;63.78;28.57;;;;;;;3.55;88.31;98078.67;1827146;76;21004;-78
2021/12/10 08:59:23;;;;;;;73.67;26.70;;;;;;;3.57;88.49;98077.38;1823420;76;21601;-77
2021/12/10 09:01:52;;;;;;;60.73;25.32;;;;;;;3.62;87.26;98065.73;1829258;76;21008;-79
2021/12/10 09:04:20;;;;;;;65.28;27.60;;;;;;;3.51;87.43;98056.45;1825440;76;21005;-79
2021/12/10 09:06:54;;;;;;;75.25;30.40;;;;;;;3.53;87.82;98043.59;1817354;76;21058;-77
2021/12/10 09:09:22;;;;;;;;;;;;;;;3.50;88.72;98042.34;1767379;79;21027;-81
2021/12/10 09:11:53;;;;;;;54.63;23.18;;;;;;;3.56;88.82;98031.97;1810985;77;20494;-80
2021/12/10 09:14:25;;;;;;;49.03;22.42;;;;;;;3.56;88.69;98033.25;1819857;77;21590;-78
2021/12/10 09:16:55;;;;;;;45.35;21.55;;;;;;;3.62;88.76;98037.05;1813144;77;20984;-79
2021/12/10 09:19:23;;;;;;;41.80;18.75;;;;;;;3.69;88.67;98024.95;1815179;77;21080;-79
2021/12/10 09:21:51;;;;;;;42.27;18.25;;;;;;;3.70;88.41;98026.64;1816549;77;21770;-79
2021/12/10 09:24:20;;;;;;;41.18;18.45;;;;;;;3.74;88.36;98021.86;1824144;77;21024;-79
2021/12/10 09:26:54;;;;;;;39.10;18.80;;;;;;;3.77;88.36;98016.69;1814677;77;20988;-78
2021/12/10 09:29:21;;;;;;;40.78;17.92;;;;;;;3.83;88.33;98003.73;1821003;77;21469;-79
2021/12/10 09:31:48;;;;;;;40.45;16.87;;;;;;;3.84;88.26;97986.58;1807405;77;21404;-80
2021/12/10 09:34:17;;;;;;;38.28;18.77;;;;;;;3.91;88.30;97983.05;1810260;77;21031;-80
2021/12/10 09:36:47;;;;;;;42.78;19.00;;;;;;;3.92;88.09;97990.75;1813637;77;21017;-81
2021/12/10 09:39:17;;;;;;;43.38;18.87;;;;;;;3.97;88.19;97991.95;1817758;77;21020;-78
2021/12/10 09:41:44;;;;;;;41.48;19.23;;;;;;;4.05;88.12;97999.09;1818465;77;21036;-77
2021/12/10 09:44:12;;;;;;;38.53;17.87;;;;;;;4.12;88.17;98004.56;1835263;76;20975;-79
2021/12/10 09:46:40;;;;;;;48.75;18.65;;;;;;;4.10;87.85;98003.73;1834925;76;21019;-79
2021/12/10 09:49:09;;;;;;;41.02;18.37;;;;;;;4.11;87.83;98009.28;1825286;76;21093;-80
2021/12/10 09:51:41;;;;;;;36.17;17.62;;;;;;;4.09;87.82;97994.31;1828452;76;21066;-79
2021/12/10 09:54:11;;;;;;;33.53;17.42;;;;;;;4.09;88.07;97994.31;1829216;76;21027;-78
2021/12/10 09:56:43;;;;;;;43.50;18.07;;;;;;;4.07;87.48;97972.07;1838033;76;21015;-78
2021/12/10 09:59:09;;;;;;;42.00;17.95;;;;;;;3.97;88.03;97971.38;1825394;76;21015;-80
2021/12/10 10:01:42;;;;;;;31.42;14.75;;;;;;;3.96;87.76;97976.13;1831160;76;21007;-79
2021/12/10 10:04:10;;;;;;;33.02;15.00;;;;;;;3.96;87.13;97995.41;1827473;76;21010;-79
2021/12/10 10:06:42;;;;;;;34.43;15.05;;;;;;;3.98;86.93;97997.52;1830448;76;20993;-78
2021/12/10 10:09:12;;;;;;;38.25;17.37;;;;;;;3.98;87.19;97985.95;1824202;76;21066;-78
2021/12/10 10:11:40;;;;;;;36.42;16.77;;;;;;;3.99;87.50;97967.89;1831715;76;21034;-77
2021/12/10 10:14:09;;;;;;;36.10;16.57;;;;;;;4.05;87.75;97971.25;1827951;76;21589;-79
2021/12/10 10:16:43;;;;;;;45.90;20.23;;;;;;;4.12;87.66;97988.29;1837792;76;21050;-78
2021/12/10 10:19:06;;;;;;;47.98;21.00;;;;;;;4.21;87.79;97992.41;1825444;76;21543;-82
2021/12/10 10:21:38;;;;;;;43.50;19.87;;;;;;;4.27;87.94;97989.73;1842616;76;21071;-79
2021/12/10 10:24:06;;;;;;;46.25;19.77;;;;;;;4.32;88.07;97976.36;1793067;78;20960;-81
2021/12/10 10:26:37;;;;;;;41.25;20.02;;;;;;;4.42;88.17;97971.45;1833064;77;20987;-80
2021/12/10 10:29:13;;;;;;;43.13;18.48;;;;;;;4.53;88.18;97975.10;1830372;76;20991;-80
2021/12/10 10:31:46;;;;;;;42.25;21.23;;;;;;;4.58;87.99;97975.44;1832506;76;21503;-80
2021/12/10 10:34:14;;;;;;;47.48;21.02;;;;;;;4.67;88.03;97970.98;1830256;77;21028;-80
2021/12/10 10:36:42;;;;;;;36.53;19.27;;;;;;;4.77;87.99;97963.48;1835419;76;21006;-80
2021/12/10 10:39:14;;;;;;;47.58;20.32;;;;;;;4.84;87.65;97959.92;1836123;77;21011;-80
2021/12/10 10:41:46;;;;;;;42.70;21.50;;;;;;;4.90;87.25;97957.22;1832754;77;21062;-80
2021/12/10 10:44:15;;;;;;;43.65;19.90;;;;;;;4.95;86.90;97936.09;1835348;76;21016;-79
2021/12/10 10:46:41;;;;;;;41.20;20.08;;;;;;;5.08;86.33;97929.38;1836091;76;21157;-82
2021/12/10 10:49:08;;;;;;;41.02;20.60;;;;;;;5.15;86.47;97924.06;1832349;76;21035;-79
2021/12/10 10:51:41;;;;;;;38.53;19.42;;;;;;;5.25;86.34;97937.59;1830793;76;21487;-79
2021/12/10 10:54:12;;;;;;;40.67;19.55;;;;;;;5.25;85.36;97929.86;1822803;76;21015;-81
2021/12/10 10:56:46;;;;;;;57.93;28.57;;;;;;;5.34;85.27;97945.10;1827770;76;21186;-80
2021/12/10 10:59:18;;;;;;;59.08;28.20;;;;;;;5.51;86.14;97950.31;1818831;77;21044;-80
2021/12/10 11:01:57;;;;;;;41.68;19.95;;;;;;;5.75;85.41;97956.65;1824092;76;20996;-79
2021/12/10 11:04:28;;;;;;;39.20;19.35;;;;;;;5.95;85.32;97963.94;1826684;76;21012;-79
2021/12/10 11:07:10;;;;;;;35.20;17.92;;;;;;;6.09;85.62;97960.56;1829253;76;20980;-79
2021/12/10 11:09:54;;;;;;;34.55;17.35;;;;;;;6.34;85.10;97965.09;1829472;76;21550;-79
2021/12/10 11:12:26;;;;;;;;;;;;;;;6.64;85.48;97969.03;1822110;76;21129;-79
2021/12/10 11:14:56;;;;;;;40.38;18.65;;;;;;;6.90;84.14;97964.42;1824084;76;20519;-79
2021/12/10 11:17:34;;;;;;;41.28;19.50;;;;;;;6.98;82.82;97952.13;1834021;76;20981;-80
2021/12/10 11:20:15;;;;;;;36.53;17.23;;;;;;;7.08;83.40;97952.71;1819764;77;21051;-82
2021/12/10 11:22:56;;;;;;;40.23;17.82;;;;;;;7.16;82.13;97944.28;1826413;77;21024;-82
2021/12/10 11:25:40;;;;;;;38.78;18.95;;;;;;;7.13;80.96;97945.69;1822414;76;21048;-81
2021/12/10 11:28:22;;;;;;;39.15;18.35;;;;;;;7.16;81.01;97946.45;1819095;77;21095;-79
2021/12/10 11:30:56;;;;;;;27.30;15.25;;;;;;;7.07;80.94;97923.45;1826922;76;21103;-80
2021/12/10 11:33:25;;;;;;;34.18;12.18;;;;;;;7.26;81.68;97947.44;1824926;76;21369;-81
2021/12/10 11:35:57;;;;;;;24.90;11.75;;;;;;;7.21;78.02;97935.96;1822292;77;21015;-84
2021/12/10 11:38:29;;;;;;;27.98;13.32;;;;;;;7.24;77.55;97928.13;1836235;76;21010;-82
2021/12/10 11:41:04;;;;;;;26.62;13.30;;;;;;;7.31;78.91;97917.98;1795907;78;21015;-80
2021/12/10 11:44:17;;;;;;;38.10;14.83;;;;;;;7.28;79.01;97924.97;1837450;76;21084;-81
2021/12/10 11:46:44;;;;;;;35.30;17.73;;;;;;;7.25;78.67;97922.05;1818482;77;21195;-81